sensor_id;sensor_type;location;lat;lon;timestamp;P1;durP1;ratioP1;P2;durP2;ratioP2
48596;SDS011;34382;43.160;24.148;2023-05-10T00:00:47;18.90;;;11.48;;
48596;SDS011;34382;43.160;24.148;2023-05-10T00:02:19;19.20;;;12.00;;
48596;SDS011;34382;43.160;24.148;2023-05-10T00:03:51;15.30;;;11.07;;
48596;SDS011;34382;43.160;24.148;2023-05-10T00:05:23;18.65;;;12.13;;
48596;SDS011;34382;43.160;24.148;2023-05-10T00:06:56;18.60;;;12.32;;
48596;SDS011;34382;43.160;24.148;2023-05-10T00:08:28;19.58;;;12.40;;
48596;SDS011;34382;43.160;24.148;2023-05-10T00:10:00;19.88;;;12.43;;
48596;SDS011;34382;43.160;24.148;2023-05-10T00:11:32;16.85;;;12.15;;
48596;SDS011;34382;43.160;24.148;2023-05-10T00:13:04;16.75;;;11.38;;
48596;SDS011;34382;43.160;24.148;2023-05-10T00:14:39;17.75;;;11.88;;
48596;SDS011;34382;43.160;24.148;2023-05-10T00:16:11;17.92;;;11.90;;
48596;SDS011;34382;43.160;24.148;2023-05-10T00:17:44;16.60;;;11.68;;
48596;SDS011;34382;43.160;24.148;2023-05-10T00:19:16;18.67;;;12.07;;
48596;SDS011;34382;43.160;24.148;2023-05-10T00:20:49;18.27;;;11.45;;
48596;SDS011;34382;43.160;24.148;2023-05-10T00:22:21;16.88;;;11.43;;
48596;SDS011;34382;43.160;24.148;2023-05-10T00:23:53;19.70;;;12.38;;
48596;SDS011;34382;43.160;24.148;2023-05-10T00:25:26;19.33;;;12.30;;
48596;SDS011;34382;43.160;24.148;2023-05-10T00:26:58;19.08;;;12.45;;
48596;SDS011;34382;43.160;24.148;2023-05-10T00:30:04;16.35;;;12.00;;
48596;SDS011;34382;43.160;24.148;2023-05-10T00:31:37;17.77;;;12.07;;
48596;SDS011;34382;43.160;24.148;2023-05-10T00:33:10;19.30;;;12.57;;
48596;SDS011;34382;43.160;24.148;2023-05-10T00:34:43;17.70;;;11.93;;
48596;SDS011;34382;43.160;24.148;2023-05-10T00:36:17;17.00;;;11.90;;
48596;SDS011;34382;43.160;24.148;2023-05-10T00:37:50;18.58;;;12.15;;
48596;SDS011;34382;43.160;24.148;2023-05-10T00:39:22;17.48;;;12.05;;
48596;SDS011;34382;43.160;24.148;2023-05-10T00:40:54;21.02;;;12.60;;
48596;SDS011;34382;43.160;24.148;2023-05-10T00:42:26;19.00;;;12.60;;
48596;SDS011;34382;43.160;24.148;2023-05-10T00:45:37;22.65;;;13.18;;
48596;SDS011;34382;43.160;24.148;2023-05-10T00:47:09;18.83;;;11.80;;
48596;SDS011;34382;43.160;24.148;2023-05-10T00:48:43;18.30;;;12.00;;
48596;SDS011;34382;43.160;24.148;2023-05-10T00:50:15;19.17;;;12.73;;
48596;SDS011;34382;43.160;24.148;2023-05-10T00:51:48;20.67;;;12.55;;
48596;SDS011;34382;43.160;24.148;2023-05-10T00:53:21;20.42;;;12.25;;
48596;SDS011;34382;43.160;24.148;2023-05-10T00:54:53;17.65;;;11.93;;
48596;SDS011;34382;43.160;24.148;2023-05-10T00:56:26;19.83;;;12.20;;
48596;SDS011;34382;43.160;24.148;2023-05-10T00:58:00;17.70;;;12.18;;
48596;SDS011;34382;43.160;24.148;2023-05-10T00:59:33;16.80;;;11.48;;
48596;SDS011;34382;43.160;24.148;2023-05-10T01:01:05;19.10;;;12.23;;
48596;SDS011;34382;43.160;24.148;2023-05-10T01:02:38;19.35;;;11.70;;
48596;SDS011;34382;43.160;24.148;2023-05-10T01:04:11;17.60;;;12.18;;
48596;SDS011;34382;43.160;24.148;2023-05-10T01:05:47;18.92;;;11.63;;
48596;SDS011;34382;43.160;24.148;2023-05-10T01:07:19;17.88;;;12.35;;
48596;SDS011;34382;43.160;24.148;2023-05-10T01:08:51;17.95;;;11.70;;
48596;SDS011;34382;43.160;24.148;2023-05-10T01:10:23;18.80;;;12.38;;
48596;SDS011;34382;43.160;24.148;2023-05-10T01:11:56;17.30;;;11.90;;
48596;SDS011;34382;43.160;24.148;2023-05-10T01:15:05;15.38;;;11.38;;
48596;SDS011;34382;43.160;24.148;2023-05-10T01:16:39;19.67;;;12.38;;
48596;SDS011;34382;43.160;24.148;2023-05-10T01:19:44;16.45;;;11.77;;
48596;SDS011;34382;43.160;24.148;2023-05-10T01:29:11;19.17;;;12.35;;
48596;SDS011;34382;43.160;24.148;2023-05-10T01:31:12;19.67;;;11.73;;
48596;SDS011;34382;43.160;24.148;2023-05-10T01:34:54;18.85;;;11.68;;
48596;SDS011;34382;43.160;24.148;2023-05-10T01:40:23;17.15;;;10.85;;
48596;SDS011;34382;43.160;24.148;2023-05-10T01:42:23;18.95;;;11.35;;
48596;SDS011;34382;43.160;24.148;2023-05-10T01:44:16;18.50;;;13.05;;
48596;SDS011;34382;43.160;24.148;2023-05-10T01:45:59;19.80;;;11.73;;
48596;SDS011;34382;43.160;24.148;2023-05-10T01:49:09;17.15;;;11.23;;
48596;SDS011;34382;43.160;24.148;2023-05-10T01:50:45;15.88;;;10.82;;
48596;SDS011;34382;43.160;24.148;2023-05-10T01:52:18;18.23;;;11.55;;
48596;SDS011;34382;43.160;24.148;2023-05-10T01:53:57;17.90;;;10.82;;
48596;SDS011;34382;43.160;24.148;2023-05-10T01:55:32;17.92;;;11.77;;
48596;SDS011;34382;43.160;24.148;2023-05-10T01:57:07;20.10;;;12.77;;
48596;SDS011;34382;43.160;24.148;2023-05-10T02:00:13;16.40;;;10.77;;
48596;SDS011;34382;43.160;24.148;2023-05-10T02:01:46;17.60;;;11.18;;
48596;SDS011;34382;43.160;24.148;2023-05-10T02:03:22;17.60;;;11.90;;
48596;SDS011;34382;43.160;24.148;2023-05-10T02:04:56;18.60;;;11.43;;
48596;SDS011;34382;43.160;24.148;2023-05-10T02:06:29;17.13;;;11.82;;
48596;SDS011;34382;43.160;24.148;2023-05-10T02:08:02;16.80;;;11.95;;
48596;SDS011;34382;43.160;24.148;2023-05-10T02:09:40;16.80;;;12.25;;
48596;SDS011;34382;43.160;24.148;2023-05-10T02:11:14;18.55;;;12.15;;
48596;SDS011;34382;43.160;24.148;2023-05-10T02:12:47;15.88;;;11.63;;
48596;SDS011;34382;43.160;24.148;2023-05-10T02:14:20;16.55;;;11.57;;
48596;SDS011;34382;43.160;24.148;2023-05-10T02:15:53;18.33;;;11.80;;
48596;SDS011;34382;43.160;24.148;2023-05-10T02:17:25;17.98;;;11.90;;
48596;SDS011;34382;43.160;24.148;2023-05-10T02:18:58;16.35;;;11.45;;
48596;SDS011;34382;43.160;24.148;2023-05-10T02:20:31;16.77;;;11.18;;
48596;SDS011;34382;43.160;24.148;2023-05-10T02:23:39;18.45;;;11.70;;
48596;SDS011;34382;43.160;24.148;2023-05-10T02:25:12;18.58;;;12.35;;
48596;SDS011;34382;43.160;24.148;2023-05-10T02:26:45;18.90;;;12.00;;
48596;SDS011;34382;43.160;24.148;2023-05-10T02:28:19;16.88;;;11.98;;
48596;SDS011;34382;43.160;24.148;2023-05-10T02:29:53;17.40;;;11.98;;
48596;SDS011;34382;43.160;24.148;2023-05-10T02:31:26;18.48;;;12.10;;
48596;SDS011;34382;43.160;24.148;2023-05-10T02:32:58;17.15;;;12.23;;
48596;SDS011;34382;43.160;24.148;2023-05-10T02:34:31;19.45;;;11.95;;
48596;SDS011;34382;43.160;24.148;2023-05-10T02:36:04;19.77;;;12.15;;
48596;SDS011;34382;43.160;24.148;2023-05-10T02:37:37;20.70;;;12.95;;
48596;SDS011;34382;43.160;24.148;2023-05-10T02:39:10;17.83;;;11.85;;
48596;SDS011;34382;43.160;24.148;2023-05-10T02:40:45;18.30;;;12.35;;
48596;SDS011;34382;43.160;24.148;2023-05-10T02:42:18;17.75;;;12.57;;
48596;SDS011;34382;43.160;24.148;2023-05-10T02:43:51;16.80;;;12.18;;
48596;SDS011;34382;43.160;24.148;2023-05-10T02:45:29;19.10;;;12.32;;
48596;SDS011;34382;43.160;24.148;2023-05-10T02:47:02;16.95;;;11.68;;
48596;SDS011;34382;43.160;24.148;2023-05-10T02:50:07;20.90;;;12.68;;
48596;SDS011;34382;43.160;24.148;2023-05-10T02:51:51;17.77;;;12.55;;
48596;SDS011;34382;43.160;24.148;2023-05-10T02:55:03;20.08;;;12.05;;
48596;SDS011;34382;43.160;24.148;2023-05-10T02:56:39;19.15;;;12.65;;
48596;SDS011;34382;43.160;24.148;2023-05-10T02:58:14;19.25;;;13.13;;
48596;SDS011;34382;43.160;24.148;2023-05-10T02:59:46;17.67;;;12.50;;
48596;SDS011;34382;43.160;24.148;2023-05-10T03:01:18;17.67;;;11.85;;
48596;SDS011;34382;43.160;24.148;2023-05-10T03:02:51;19.52;;;13.02;;
48596;SDS011;34382;43.160;24.148;2023-05-10T03:04:23;17.85;;;12.63;;
48596;SDS011;34382;43.160;24.148;2023-05-10T03:05:55;17.85;;;12.43;;
48596;SDS011;34382;43.160;24.148;2023-05-10T03:09:01;17.13;;;11.85;;
48596;SDS011;34382;43.160;24.148;2023-05-10T03:10:36;18.73;;;12.73;;
48596;SDS011;34382;43.160;24.148;2023-05-10T03:12:19;17.80;;;11.93;;
48596;SDS011;34382;43.160;24.148;2023-05-10T03:13:56;20.45;;;12.77;;
48596;SDS011;34382;43.160;24.148;2023-05-10T03:17:29;21.40;;;12.73;;
48596;SDS011;34382;43.160;24.148;2023-05-10T03:19:15;19.15;;;13.43;;
48596;SDS011;34382;43.160;24.148;2023-05-10T03:20:50;18.38;;;13.20;;
48596;SDS011;34382;43.160;24.148;2023-05-10T03:24:03;19.13;;;12.80;;
48596;SDS011;34382;43.160;24.148;2023-05-10T03:25:38;19.17;;;12.02;;
48596;SDS011;34382;43.160;24.148;2023-05-10T03:27:12;19.20;;;12.95;;
48596;SDS011;34382;43.160;24.148;2023-05-10T03:28:46;23.83;;;13.73;;
48596;SDS011;34382;43.160;24.148;2023-05-10T03:30:19;19.90;;;12.98;;
48596;SDS011;34382;43.160;24.148;2023-05-10T03:31:52;18.95;;;12.55;;
48596;SDS011;34382;43.160;24.148;2023-05-10T03:33:24;17.67;;;12.48;;
48596;SDS011;34382;43.160;24.148;2023-05-10T03:34:56;19.25;;;12.43;;
48596;SDS011;34382;43.160;24.148;2023-05-10T03:36:28;18.95;;;13.00;;
48596;SDS011;34382;43.160;24.148;2023-05-10T03:38:03;18.73;;;13.02;;
48596;SDS011;34382;43.160;24.148;2023-05-10T03:39:36;17.88;;;12.85;;
48596;SDS011;34382;43.160;24.148;2023-05-10T03:41:08;18.38;;;13.05;;
48596;SDS011;34382;43.160;24.148;2023-05-10T03:44:12;17.42;;;12.43;;
48596;SDS011;34382;43.160;24.148;2023-05-10T03:45:44;20.02;;;13.35;;
48596;SDS011;34382;43.160;24.148;2023-05-10T03:47:16;19.27;;;12.68;;
48596;SDS011;34382;43.160;24.148;2023-05-10T03:48:48;18.98;;;12.70;;
48596;SDS011;34382;43.160;24.148;2023-05-10T03:50:20;17.10;;;12.23;;
48596;SDS011;34382;43.160;24.148;2023-05-10T03:51:54;19.42;;;13.25;;
48596;SDS011;34382;43.160;24.148;2023-05-10T03:53:26;19.20;;;12.50;;
48596;SDS011;34382;43.160;24.148;2023-05-10T03:54:58;19.05;;;12.80;;
48596;SDS011;34382;43.160;24.148;2023-05-10T03:56:30;19.30;;;12.50;;
48596;SDS011;34382;43.160;24.148;2023-05-10T03:58:03;18.38;;;12.55;;
48596;SDS011;34382;43.160;24.148;2023-05-10T03:59:35;18.67;;;11.73;;
48596;SDS011;34382;43.160;24.148;2023-05-10T04:01:07;17.92;;;12.02;;
48596;SDS011;34382;43.160;24.148;2023-05-10T04:02:39;19.17;;;12.32;;
48596;SDS011;34382;43.160;24.148;2023-05-10T04:04:12;18.45;;;12.60;;
48596;SDS011;34382;43.160;24.148;2023-05-10T04:05:44;16.70;;;12.15;;
48596;SDS011;34382;43.160;24.148;2023-05-10T04:07:16;18.33;;;12.68;;
48596;SDS011;34382;43.160;24.148;2023-05-10T04:08:49;16.15;;;11.13;;
48596;SDS011;34382;43.160;24.148;2023-05-10T04:10:21;18.45;;;11.90;;
48596;SDS011;34382;43.160;24.148;2023-05-10T04:11:53;18.75;;;11.63;;
48596;SDS011;34382;43.160;24.148;2023-05-10T04:13:26;18.13;;;11.68;;
48596;SDS011;34382;43.160;24.148;2023-05-10T04:14:58;17.48;;;12.35;;
48596;SDS011;34382;43.160;24.148;2023-05-10T04:16:30;17.13;;;11.52;;
48596;SDS011;34382;43.160;24.148;2023-05-10T04:18:02;17.05;;;10.98;;
48596;SDS011;34382;43.160;24.148;2023-05-10T04:19:38;17.40;;;12.10;;
48596;SDS011;34382;43.160;24.148;2023-05-10T04:21:13;16.80;;;11.38;;
48596;SDS011;34382;43.160;24.148;2023-05-10T04:22:45;17.23;;;11.52;;
48596;SDS011;34382;43.160;24.148;2023-05-10T04:24:17;17.08;;;11.88;;
48596;SDS011;34382;43.160;24.148;2023-05-10T04:25:50;17.42;;;11.75;;
48596;SDS011;34382;43.160;24.148;2023-05-10T04:27:22;16.23;;;11.73;;
48596;SDS011;34382;43.160;24.148;2023-05-10T04:28:54;17.80;;;12.05;;
48596;SDS011;34382;43.160;24.148;2023-05-10T04:30:26;17.80;;;11.77;;
48596;SDS011;34382;43.160;24.148;2023-05-10T04:32:01;17.73;;;12.80;;
48596;SDS011;34382;43.160;24.148;2023-05-10T04:33:33;19.83;;;12.82;;
48596;SDS011;34382;43.160;24.148;2023-05-10T04:36:39;21.35;;;12.70;;
48596;SDS011;34382;43.160;24.148;2023-05-10T04:38:11;17.98;;;11.88;;
48596;SDS011;34382;43.160;24.148;2023-05-10T04:39:43;17.65;;;12.15;;
48596;SDS011;34382;43.160;24.148;2023-05-10T04:41:16;19.10;;;12.75;;
48596;SDS011;34382;43.160;24.148;2023-05-10T04:42:48;17.98;;;11.98;;
48596;SDS011;34382;43.160;24.148;2023-05-10T04:44:20;18.75;;;11.43;;
48596;SDS011;34382;43.160;24.148;2023-05-10T04:45:52;16.90;;;11.30;;
48596;SDS011;34382;43.160;24.148;2023-05-10T04:47:28;16.80;;;11.23;;
48596;SDS011;34382;43.160;24.148;2023-05-10T04:49:00;17.33;;;11.90;;
48596;SDS011;34382;43.160;24.148;2023-05-10T04:50:32;19.10;;;12.50;;
48596;SDS011;34382;43.160;24.148;2023-05-10T04:52:05;18.95;;;12.57;;
48596;SDS011;34382;43.160;24.148;2023-05-10T04:53:37;23.00;;;13.10;;
48596;SDS011;34382;43.160;24.148;2023-05-10T04:55:09;17.13;;;11.47;;
48596;SDS011;34382;43.160;24.148;2023-05-10T04:56:44;18.58;;;12.35;;
48596;SDS011;34382;43.160;24.148;2023-05-10T04:58:16;17.95;;;12.13;;
48596;SDS011;34382;43.160;24.148;2023-05-10T04:59:49;21.88;;;13.30;;
48596;SDS011;34382;43.160;24.148;2023-05-10T05:01:21;19.30;;;12.95;;
48596;SDS011;34382;43.160;24.148;2023-05-10T05:02:54;16.55;;;11.85;;
48596;SDS011;34382;43.160;24.148;2023-05-10T05:04:27;17.20;;;11.40;;
48596;SDS011;34382;43.160;24.148;2023-05-10T05:05:59;16.80;;;12.13;;
48596;SDS011;34382;43.160;24.148;2023-05-10T05:07:31;17.08;;;12.00;;
48596;SDS011;34382;43.160;24.148;2023-05-10T05:09:04;17.27;;;11.50;;
48596;SDS011;34382;43.160;24.148;2023-05-10T05:10:36;15.85;;;11.50;;
48596;SDS011;34382;43.160;24.148;2023-05-10T05:13:41;16.75;;;10.98;;
48596;SDS011;34382;43.160;24.148;2023-05-10T05:15:13;17.08;;;11.40;;
48596;SDS011;34382;43.160;24.148;2023-05-10T05:16:46;17.80;;;10.90;;
48596;SDS011;34382;43.160;24.148;2023-05-10T05:18:19;17.55;;;11.18;;
48596;SDS011;34382;43.160;24.148;2023-05-10T05:19:51;15.82;;;10.65;;
48596;SDS011;34382;43.160;24.148;2023-05-10T05:21:23;15.60;;;11.50;;
48596;SDS011;34382;43.160;24.148;2023-05-10T05:22:56;15.60;;;11.02;;
48596;SDS011;34382;43.160;24.148;2023-05-10T05:24:28;18.10;;;10.68;;
48596;SDS011;34382;43.160;24.148;2023-05-10T05:26:00;17.70;;;10.35;;
48596;SDS011;34382;43.160;24.148;2023-05-10T05:29:14;16.30;;;10.77;;
48596;SDS011;34382;43.160;24.148;2023-05-10T05:30:47;17.70;;;11.05;;
48596;SDS011;34382;43.160;24.148;2023-05-10T05:32:19;17.23;;;11.00;;
48596;SDS011;34382;43.160;24.148;2023-05-10T05:33:52;15.30;;;10.27;;
48596;SDS011;34382;43.160;24.148;2023-05-10T05:35:24;15.27;;;10.20;;
48596;SDS011;34382;43.160;24.148;2023-05-10T05:36:56;16.00;;;10.80;;
48596;SDS011;34382;43.160;24.148;2023-05-10T05:38:28;16.88;;;10.82;;
48596;SDS011;34382;43.160;24.148;2023-05-10T05:40:01;23.45;;;12.07;;
48596;SDS011;34382;43.160;24.148;2023-05-10T05:41:33;25.50;;;12.53;;
48596;SDS011;34382;43.160;24.148;2023-05-10T05:43:05;19.20;;;10.25;;
48596;SDS011;34382;43.160;24.148;2023-05-10T05:44:37;16.80;;;11.18;;
48596;SDS011;34382;43.160;24.148;2023-05-10T05:46:10;17.95;;;10.80;;
48596;SDS011;34382;43.160;24.148;2023-05-10T05:47:42;23.67;;;12.30;;
48596;SDS011;34382;43.160;24.148;2023-05-10T05:49:14;20.33;;;11.10;;
48596;SDS011;34382;43.160;24.148;2023-05-10T05:50:49;15.25;;;10.45;;
48596;SDS011;34382;43.160;24.148;2023-05-10T05:52:21;16.33;;;10.23;;
48596;SDS011;34382;43.160;24.148;2023-05-10T05:53:55;18.40;;;11.85;;
48596;SDS011;34382;43.160;24.148;2023-05-10T05:55:27;17.20;;;11.43;;
48596;SDS011;34382;43.160;24.148;2023-05-10T05:57:00;17.75;;;11.55;;
48596;SDS011;34382;43.160;24.148;2023-05-10T05:58:32;27.05;;;15.55;;
48596;SDS011;34382;43.160;24.148;2023-05-10T06:00:04;22.85;;;12.77;;
48596;SDS011;34382;43.160;24.148;2023-05-10T06:03:16;22.15;;;13.13;;
48596;SDS011;34382;43.160;24.148;2023-05-10T06:04:48;17.23;;;12.13;;
48596;SDS011;34382;43.160;24.148;2023-05-10T06:06:21;22.80;;;13.55;;
48596;SDS011;34382;43.160;24.148;2023-05-10T06:07:53;15.80;;;10.70;;
48596;SDS011;34382;43.160;24.148;2023-05-10T06:09:25;17.83;;;11.00;;
48596;SDS011;34382;43.160;24.148;2023-05-10T06:10:57;19.63;;;12.05;;
48596;SDS011;34382;43.160;24.148;2023-05-10T06:12:29;19.27;;;12.75;;
48596;SDS011;34382;43.160;24.148;2023-05-10T06:14:02;18.83;;;11.57;;
48596;SDS011;34382;43.160;24.148;2023-05-10T06:15:42;17.67;;;11.35;;
48596;SDS011;34382;43.160;24.148;2023-05-10T06:17:14;21.75;;;11.07;;
48596;SDS011;34382;43.160;24.148;2023-05-10T06:18:46;16.67;;;11.40;;
48596;SDS011;34382;43.160;24.148;2023-05-10T06:20:18;17.45;;;10.70;;
48596;SDS011;34382;43.160;24.148;2023-05-10T06:21:50;17.90;;;10.95;;
48596;SDS011;34382;43.160;24.148;2023-05-10T06:24:57;16.10;;;10.10;;
48596;SDS011;34382;43.160;24.148;2023-05-10T06:26:29;14.60;;;9.73;;
48596;SDS011;34382;43.160;24.148;2023-05-10T06:28:01;19.35;;;10.40;;
48596;SDS011;34382;43.160;24.148;2023-05-10T06:29:33;15.52;;;9.43;;
48596;SDS011;34382;43.160;24.148;2023-05-10T06:31:06;14.38;;;10.00;;
48596;SDS011;34382;43.160;24.148;2023-05-10T06:32:38;22.00;;;9.87;;
48596;SDS011;34382;43.160;24.148;2023-05-10T06:34:10;14.38;;;9.52;;
48596;SDS011;34382;43.160;24.148;2023-05-10T06:35:43;14.43;;;10.13;;
48596;SDS011;34382;43.160;24.148;2023-05-10T06:37:15;15.73;;;9.02;;
48596;SDS011;34382;43.160;24.148;2023-05-10T06:38:47;14.23;;;9.07;;
48596;SDS011;34382;43.160;24.148;2023-05-10T06:40:20;16.92;;;9.98;;
48596;SDS011;34382;43.160;24.148;2023-05-10T06:41:52;12.93;;;9.02;;
48596;SDS011;34382;43.160;24.148;2023-05-10T06:43:24;14.68;;;9.65;;
48596;SDS011;34382;43.160;24.148;2023-05-10T06:44:57;12.88;;;9.25;;
48596;SDS011;34382;43.160;24.148;2023-05-10T06:46:29;15.32;;;9.98;;
48596;SDS011;34382;43.160;24.148;2023-05-10T06:48:02;16.77;;;8.95;;
48596;SDS011;34382;43.160;24.148;2023-05-10T06:49:34;14.80;;;9.02;;
48596;SDS011;34382;43.160;24.148;2023-05-10T06:51:07;14.05;;;8.52;;
48596;SDS011;34382;43.160;24.148;2023-05-10T06:52:39;13.73;;;9.18;;
48596;SDS011;34382;43.160;24.148;2023-05-10T06:54:11;16.42;;;9.02;;
48596;SDS011;34382;43.160;24.148;2023-05-10T06:55:43;18.73;;;10.10;;
48596;SDS011;34382;43.160;24.148;2023-05-10T06:57:16;14.82;;;9.43;;
48596;SDS011;34382;43.160;24.148;2023-05-10T06:59:01;16.45;;;9.77;;
48596;SDS011;34382;43.160;24.148;2023-05-10T07:02:06;17.10;;;10.18;;
48596;SDS011;34382;43.160;24.148;2023-05-10T07:03:38;13.85;;;9.35;;
48596;SDS011;34382;43.160;24.148;2023-05-10T07:05:10;16.73;;;10.30;;
48596;SDS011;34382;43.160;24.148;2023-05-10T07:06:43;18.08;;;10.65;;
48596;SDS011;34382;43.160;24.148;2023-05-10T07:08:17;19.80;;;11.07;;
48596;SDS011;34382;43.160;24.148;2023-05-10T07:09:50;18.50;;;10.43;;
48596;SDS011;34382;43.160;24.148;2023-05-10T07:11:22;18.35;;;10.38;;
48596;SDS011;34382;43.160;24.148;2023-05-10T07:12:55;18.90;;;10.53;;
48596;SDS011;34382;43.160;24.148;2023-05-10T07:14:27;14.40;;;9.18;;
48596;SDS011;34382;43.160;24.148;2023-05-10T07:16:00;17.30;;;8.77;;
48596;SDS011;34382;43.160;24.148;2023-05-10T07:17:33;17.92;;;9.45;;
48596;SDS011;34382;43.160;24.148;2023-05-10T07:19:06;29.35;;;10.10;;
48596;SDS011;34382;43.160;24.148;2023-05-10T07:20:38;21.23;;;9.15;;
48596;SDS011;34382;43.160;24.148;2023-05-10T07:22:10;24.30;;;9.75;;
48596;SDS011;34382;43.160;24.148;2023-05-10T07:23:43;11.50;;;7.55;;
48596;SDS011;34382;43.160;24.148;2023-05-10T07:25:15;15.27;;;8.02;;
48596;SDS011;34382;43.160;24.148;2023-05-10T07:26:48;17.30;;;9.52;;
48596;SDS011;34382;43.160;24.148;2023-05-10T07:28:20;12.23;;;8.43;;
48596;SDS011;34382;43.160;24.148;2023-05-10T07:29:52;12.70;;;8.52;;
48596;SDS011;34382;43.160;24.148;2023-05-10T07:31:24;15.20;;;9.40;;
48596;SDS011;34382;43.160;24.148;2023-05-10T07:32:56;16.27;;;9.50;;
48596;SDS011;34382;43.160;24.148;2023-05-10T08:16:39;24.80;;;9.35;;
48596;SDS011;34382;43.160;24.148;2023-05-10T08:18:11;15.47;;;8.27;;
48596;SDS011;34382;43.160;24.148;2023-05-10T08:19:44;24.05;;;10.00;;
48596;SDS011;34382;43.160;24.148;2023-05-10T08:21:16;12.70;;;7.90;;
48596;SDS011;34382;43.160;24.148;2023-05-10T08:22:48;13.07;;;7.05;;
48596;SDS011;34382;43.160;24.148;2023-05-10T08:24:22;16.95;;;8.35;;
48596;SDS011;34382;43.160;24.148;2023-05-10T08:25:54;10.68;;;6.10;;
48596;SDS011;34382;43.160;24.148;2023-05-10T08:27:26;15.00;;;6.45;;
48596;SDS011;34382;43.160;24.148;2023-05-10T08:28:58;14.75;;;6.10;;
48596;SDS011;34382;43.160;24.148;2023-05-10T08:30:31;14.40;;;6.47;;
48596;SDS011;34382;43.160;24.148;2023-05-10T08:32:03;9.55;;;6.05;;
48596;SDS011;34382;43.160;24.148;2023-05-10T08:33:35;18.02;;;8.38;;
48596;SDS011;34382;43.160;24.148;2023-05-10T08:35:07;14.93;;;7.22;;
48596;SDS011;34382;43.160;24.148;2023-05-10T08:36:40;10.30;;;6.03;;
48596;SDS011;34382;43.160;24.148;2023-05-10T08:38:12;32.58;;;11.60;;
48596;SDS011;34382;43.160;24.148;2023-05-10T08:39:44;12.43;;;6.40;;
48596;SDS011;34382;43.160;24.148;2023-05-10T08:41:19;10.75;;;5.63;;
48596;SDS011;34382;43.160;24.148;2023-05-10T08:44:35;9.80;;;5.57;;
48596;SDS011;34382;43.160;24.148;2023-05-10T08:47:40;9.50;;;5.50;;
48596;SDS011;34382;43.160;24.148;2023-05-10T08:49:13;9.53;;;5.70;;
48596;SDS011;34382;43.160;24.148;2023-05-10T08:50:51;10.27;;;4.90;;
48596;SDS011;34382;43.160;24.148;2023-05-10T08:52:24;12.48;;;5.55;;
48596;SDS011;34382;43.160;24.148;2023-05-10T08:53:58;10.63;;;5.32;;
48596;SDS011;34382;43.160;24.148;2023-05-10T08:55:31;11.05;;;5.10;;
48596;SDS011;34382;43.160;24.148;2023-05-10T08:57:05;8.95;;;4.75;;
48596;SDS011;34382;43.160;24.148;2023-05-10T08:58:37;11.70;;;4.87;;
48596;SDS011;34382;43.160;24.148;2023-05-10T09:00:10;19.60;;;6.25;;
48596;SDS011;34382;43.160;24.148;2023-05-10T09:01:43;11.60;;;5.43;;
48596;SDS011;34382;43.160;24.148;2023-05-10T09:03:17;15.07;;;5.72;;
48596;SDS011;34382;43.160;24.148;2023-05-10T09:04:49;10.83;;;5.13;;
48596;SDS011;34382;43.160;24.148;2023-05-10T09:06:22;9.70;;;4.88;;
48596;SDS011;34382;43.160;24.148;2023-05-10T09:07:54;15.48;;;6.68;;
48596;SDS011;34382;43.160;24.148;2023-05-10T09:09:27;15.63;;;5.95;;
48596;SDS011;34382;43.160;24.148;2023-05-10T09:10:59;10.77;;;5.30;;
48596;SDS011;34382;43.160;24.148;2023-05-10T09:12:33;15.57;;;5.90;;
48596;SDS011;34382;43.160;24.148;2023-05-10T09:14:05;15.13;;;6.82;;
48596;SDS011;34382;43.160;24.148;2023-05-10T09:15:37;10.52;;;5.35;;
48596;SDS011;34382;43.160;24.148;2023-05-10T09:17:10;9.75;;;5.22;;
48596;SDS011;34382;43.160;24.148;2023-05-10T09:18:42;18.92;;;7.38;;
48596;SDS011;34382;43.160;24.148;2023-05-10T09:20:14;18.70;;;6.55;;
48596;SDS011;34382;43.160;24.148;2023-05-10T09:21:49;11.73;;;5.55;;
48596;SDS011;34382;43.160;24.148;2023-05-10T09:23:21;8.02;;;4.47;;
48596;SDS011;34382;43.160;24.148;2023-05-10T09:26:48;7.97;;;4.10;;
48596;SDS011;34382;43.160;24.148;2023-05-10T09:28:20;9.27;;;4.38;;
48596;SDS011;34382;43.160;24.148;2023-05-10T09:29:52;8.48;;;4.50;;
48596;SDS011;34382;43.160;24.148;2023-05-10T09:33:18;8.25;;;4.20;;
48596;SDS011;34382;43.160;24.148;2023-05-10T09:34:51;8.27;;;4.30;;
48596;SDS011;34382;43.160;24.148;2023-05-10T09:36:23;9.88;;;4.57;;
48596;SDS011;34382;43.160;24.148;2023-05-10T09:37:56;11.70;;;4.93;;
48596;SDS011;34382;43.160;24.148;2023-05-10T09:39:33;10.43;;;4.63;;
48596;SDS011;34382;43.160;24.148;2023-05-10T09:41:14;10.68;;;4.80;;
48596;SDS011;34382;43.160;24.148;2023-05-10T09:42:57;8.80;;;4.47;;
48596;SDS011;34382;43.160;24.148;2023-05-10T09:44:30;8.20;;;4.45;;
48596;SDS011;34382;43.160;24.148;2023-05-10T09:46:08;9.07;;;4.55;;
48596;SDS011;34382;43.160;24.148;2023-05-10T09:47:41;9.00;;;4.60;;
48596;SDS011;34382;43.160;24.148;2023-05-10T09:49:14;8.60;;;4.45;;
48596;SDS011;34382;43.160;24.148;2023-05-10T09:50:46;8.23;;;4.68;;
48596;SDS011;34382;43.160;24.148;2023-05-10T09:52:45;11.20;;;4.65;;
48596;SDS011;34382;43.160;24.148;2023-05-10T09:54:20;8.93;;;4.70;;
48596;SDS011;34382;43.160;24.148;2023-05-10T09:55:55;9.02;;;4.65;;
48596;SDS011;34382;43.160;24.148;2023-05-10T09:57:27;8.15;;;4.22;;
48596;SDS011;34382;43.160;24.148;2023-05-10T09:59:03;8.43;;;4.28;;
48596;SDS011;34382;43.160;24.148;2023-05-10T10:00:35;9.40;;;4.03;;
48596;SDS011;34382;43.160;24.148;2023-05-10T10:02:09;8.15;;;3.90;;
48596;SDS011;34382;43.160;24.148;2023-05-10T10:03:42;7.68;;;4.00;;
48596;SDS011;34382;43.160;24.148;2023-05-10T10:06:47;8.15;;;4.00;;
48596;SDS011;34382;43.160;24.148;2023-05-10T10:08:30;7.53;;;3.72;;
48596;SDS011;34382;43.160;24.148;2023-05-10T10:10:02;10.40;;;4.18;;
48596;SDS011;34382;43.160;24.148;2023-05-10T10:11:37;9.13;;;4.10;;
48596;SDS011;34382;43.160;24.148;2023-05-10T10:13:10;10.75;;;4.15;;
48596;SDS011;34382;43.160;24.148;2023-05-10T10:14:42;10.37;;;4.83;;
48596;SDS011;34382;43.160;24.148;2023-05-10T10:16:15;9.57;;;5.20;;
48596;SDS011;34382;43.160;24.148;2023-05-10T10:17:48;8.93;;;4.45;;
48596;SDS011;34382;43.160;24.148;2023-05-10T10:19:20;11.13;;;5.18;;
48596;SDS011;34382;43.160;24.148;2023-05-10T10:20:53;8.77;;;4.95;;
48596;SDS011;34382;43.160;24.148;2023-05-10T10:22:26;8.38;;;4.00;;
48596;SDS011;34382;43.160;24.148;2023-05-10T10:23:58;8.52;;;4.43;;
48596;SDS011;34382;43.160;24.148;2023-05-10T10:25:30;9.55;;;4.15;;
48596;SDS011;34382;43.160;24.148;2023-05-10T10:27:11;7.97;;;4.07;;
48596;SDS011;34382;43.160;24.148;2023-05-10T10:30:56;7.00;;;3.65;;
48596;SDS011;34382;43.160;24.148;2023-05-10T10:34:57;7.97;;;3.97;;
48596;SDS011;34382;43.160;24.148;2023-05-10T10:36:29;10.48;;;4.25;;
48596;SDS011;34382;43.160;24.148;2023-05-10T10:38:02;13.57;;;5.33;;
48596;SDS011;34382;43.160;24.148;2023-05-10T10:39:34;16.33;;;4.63;;
48596;SDS011;34382;43.160;24.148;2023-05-10T10:41:11;8.50;;;3.92;;